Burnwood, New York
Current Conditions -  °F | °C
As of 8:35 AM on Friday 28 Nov 2014 (Local Time) from KMSV Reporting Station
Overcast Overcast  
Wind Chill: -9°   Ceiling: 3000
Heat Index: -4°   Visibility: 10mi
Dew Point: -7°   Wind: 9mph
Humidity: 80%   Direction: 290°WNW
Pressure: 30.12"   Gusts: NA
Location:  41.9811°N, 75.0952°W
Report Text: KMSV 281335Z AUTO 29008KT 10SM OVC030 M04/M07 A3012 RMK AO1
Loading
Personal Weather Stations






























Interactive Weather Map New forecast layout! Learn more

10-Day Weather Forecast

Advertisements
Track Severe Weather on mobile